Time;durP1;ratioP1;P1;durP2;ratioP2;P2;SDS_P1;SDS_P2;PMS_P1;PMS_P2;Temp;Humidity;BMP_temperature;BMP_pressure;BME280_temperature;BME280_humidity;BME280_pressure;Samples;Min_cycle;Max_cycle;Signal;HPM_P1;HPM_P2
2022/11/17 00:01:03;;;;;;;5.87;3.63;;;;;;;;;;4975744;28;20677;-78
2022/11/17 00:03:28;;;;;;;9.80;2.70;;;;;;;;;;4999683;28;20228;-79
2022/11/17 00:05:53;;;;;;;7.60;2.80;;;;;;;;;;4994122;28;20203;-79
2022/11/17 00:08:19;;;;;;;7.27;3.07;;;;;;;;;;4993179;28;20191;-79
2022/11/17 00:10:44;;;;;;;5.93;2.67;;;;;;;;;;4994069;28;20210;-79
2022/11/17 00:16:00;;;;;;;5.87;3.37;;;;;;;;;;4968539;28;20315;-78
2022/11/17 00:21:20;;;;;;;10.37;4.10;;;;;;;;;;4994048;28;20261;-79
2022/11/17 00:23:48;;;;;;;6.57;3.67;;;;;;;;;;4981558;28;20185;-80
2022/11/17 00:26:14;;;;;;;6.73;3.63;;;;;;;;;;4975120;28;20215;-80
2022/11/17 00:28:40;;;;;;;6.77;3.60;;;;;;;;;;4995620;28;20184;-79
2022/11/17 00:34:04;;;;;;;7.30;4.27;;;;;;;;;;4994398;28;20592;-79
2022/11/17 00:36:30;;;;;;;4.23;3.73;;;;;;;;;;4994179;28;20195;-79
2022/11/17 00:38:55;;;;;;;9.03;5.47;;;;;;;;;;4977970;28;20549;-80
2022/11/17 00:41:20;;;;;;;10.40;4.73;;;;;;;;;;4981338;28;20388;-79
2022/11/17 00:43:45;;;;;;;6.90;4.27;;;;;;;;;;4978597;28;20187;-80
2022/11/17 00:46:11;;;;;;;9.07;4.87;;;;;;;;;;4978439;28;20204;-80
2022/11/17 00:48:36;;;;;;;7.70;4.70;;;;;;;;;;4973936;28;20190;-80
2022/11/17 00:51:02;;;;;;;9.33;4.80;;;;;;;;;;4980197;28;21050;-81
2022/11/17 00:53:27;;;;;;;9.97;4.90;;;;;;;;;;4999669;28;20191;-81
2022/11/17 00:55:53;;;;;;;5.43;4.63;;;;;;;;;;4981014;28;20267;-80
2022/11/17 00:58:18;;;;;;;12.93;4.80;;;;;;;;;;4981377;28;20266;-81
2022/11/17 01:00:43;;;;;;;9.20;4.90;;;;;;;;;;4997662;28;20163;-81
2022/11/17 01:03:08;;;;;;;7.30;5.60;;;;;;;;;;4999365;28;20666;-82
2022/11/17 01:05:34;;;;;;;7.07;4.17;;;;;;;;;;5002520;28;20196;-82
2022/11/17 01:07:59;;;;;;;8.43;4.33;;;;;;;;;;4997396;28;20191;-81
2022/11/17 01:10:24;;;;;;;4.53;3.80;;;;;;;;;;4998182;28;20172;-81
2022/11/17 01:12:49;;;;;;;5.00;4.03;;;;;;;;;;4993228;28;20208;-82
2022/11/17 01:15:14;;;;;;;6.00;4.00;;;;;;;;;;4996956;28;20239;-82
2022/11/17 01:17:40;;;;;;;6.20;3.87;;;;;;;;;;4983067;28;20175;-82
2022/11/17 01:20:05;;;;;;;6.00;3.70;;;;;;;;;;4999004;28;20172;-81
2022/11/17 01:22:30;;;;;;;11.03;3.93;;;;;;;;;;4997668;28;20178;-81
2022/11/17 01:24:55;;;;;;;6.93;3.93;;;;;;;;;;4995831;28;20188;-81
2022/11/17 01:27:21;;;;;;;5.00;4.43;;;;;;;;;;4980987;28;20601;-81
2022/11/17 01:29:46;;;;;;;5.07;4.23;;;;;;;;;;4978735;28;20326;-81
2022/11/17 01:32:11;;;;;;;8.33;5.03;;;;;;;;;;4982093;28;20218;-82
2022/11/17 01:34:37;;;;;;;5.53;4.03;;;;;;;;;;4990124;28;20188;-81
2022/11/17 01:37:20;;;;;;;4.53;4.13;;;;;;;;;;4993299;28;20227;-80
2022/11/17 01:39:46;;;;;;;5.20;4.00;;;;;;;;;;4989247;28;20182;-80
2022/11/17 01:42:13;;;;;;;5.57;4.60;;;;;;;;;;4991628;28;20180;-79
2022/11/17 01:44:46;;;;;;;3.97;3.03;;;;;;;;;;4993991;28;20180;-80
2022/11/17 01:47:18;;;;;;;5.67;4.63;;;;;;;;;;4992945;28;20206;-80
2022/11/17 01:49:43;;;;;;;3.60;3.30;;;;;;;;;;4993171;28;20174;-79
2022/11/17 01:52:09;;;;;;;5.27;3.50;;;;;;;;;;4989781;28;20179;-79
2022/11/17 01:54:36;;;;;;;8.40;4.87;;;;;;;;;;4976091;28;20175;-79
2022/11/17 01:57:03;;;;;;;8.77;4.57;;;;;;;;;;4973914;28;20226;-79
2022/11/17 01:59:33;;;;;;;4.70;3.70;;;;;;;;;;4992556;28;20234;-79
2022/11/17 02:01:59;;;;;;;5.70;3.90;;;;;;;;;;4990071;28;20189;-79
2022/11/17 02:04:26;;;;;;;7.40;3.67;;;;;;;;;;4974800;28;20665;-79
2022/11/17 02:06:52;;;;;;;5.00;3.70;;;;;;;;;;4989431;28;20234;-80
2022/11/17 02:09:18;;;;;;;4.20;3.63;;;;;;;;;;4989956;28;20187;-80
2022/11/17 02:11:43;;;;;;;5.67;4.40;;;;;;;;;;4989070;28;20180;-80
2022/11/17 02:14:09;;;;;;;6.63;4.13;;;;;;;;;;4975110;28;20748;-80
2022/11/17 02:16:34;;;;;;;4.73;4.00;;;;;;;;;;4975031;28;20298;-80
2022/11/17 02:18:59;;;;;;;6.33;4.80;;;;;;;;;;4975632;28;20229;-79
2022/11/17 02:21:35;;;;;;;5.93;3.83;;;;;;;;;;4974670;28;20195;-79
2022/11/17 02:24:00;;;;;;;8.10;3.83;;;;;;;;;;4975490;28;20179;-79
2022/11/17 02:26:44;;;;;;;3.80;3.17;;;;;;;;;;4992547;28;20207;-80
2022/11/17 02:29:09;;;;;;;6.53;3.80;;;;;;;;;;4993090;28;20191;-79
2022/11/17 02:31:53;;;;;;;4.67;3.30;;;;;;;;;;4973235;28;20322;-79
2022/11/17 02:34:30;;;;;;;4.43;3.17;;;;;;;;;;4992105;28;20199;-79
2022/11/17 02:36:59;;;;;;;4.90;3.00;;;;;;;;;;4992658;28;20231;-79
2022/11/17 02:39:35;;;;;;;2.93;2.63;;;;;;;;;;4993925;28;20176;-79
2022/11/17 02:42:06;;;;;;;4.87;3.47;;;;;;;;;;4993341;28;20187;-78
2022/11/17 02:44:38;;;;;;;6.60;2.70;;;;;;;;;;4994820;28;20223;-77
2022/11/17 02:47:09;;;;;;;6.10;3.10;;;;;;;;;;4988848;28;20196;-78
2022/11/17 02:49:35;;;;;;;4.40;2.70;;;;;;;;;;4994602;28;20188;-79
2022/11/17 02:52:01;;;;;;;7.67;3.03;;;;;;;;;;4989057;28;20567;-78
2022/11/17 02:54:28;;;;;;;3.67;2.20;;;;;;;;;;4974464;28;20184;-78
2022/11/17 02:56:53;;;;;;;5.57;2.50;;;;;;;;;;4994871;28;20294;-78
2022/11/17 02:59:21;;;;;;;5.47;2.87;;;;;;;;;;4977188;28;20262;-78
2022/11/17 03:01:47;;;;;;;3.60;2.07;;;;;;;;;;4974788;28;20184;-78
2022/11/17 03:04:21;;;;;;;3.43;2.50;;;;;;;;;;4993020;28;20206;-78
2022/11/17 03:06:55;;;;;;;2.67;2.20;;;;;;;;;;4989447;28;20204;-78
2022/11/17 03:09:20;;;;;;;2.27;2.00;;;;;;;;;;4992672;28;20202;-78
2022/11/17 03:11:52;;;;;;;5.20;2.63;;;;;;;;;;4993632;28;20654;-78
2022/11/17 03:14:19;;;;;;;3.00;2.20;;;;;;;;;;4995620;28;20211;-78
2022/11/17 03:16:57;;;;;;;2.90;2.10;;;;;;;;;;4978388;28;20666;-78
2022/11/17 03:19:31;;;;;;;2.80;2.10;;;;;;;;;;4994875;28;20214;-78
2022/11/17 03:22:02;;;;;;;4.83;2.07;;;;;;;;;;4987696;28;20190;-78
2022/11/17 03:24:29;;;;;;;2.73;2.13;;;;;;;;;;4976924;28;20642;-77
2022/11/17 03:26:58;;;;;;;4.40;1.83;;;;;;;;;;4994110;28;20290;-81
2022/11/17 03:29:25;;;;;;;9.07;2.20;;;;;;;;;;4976623;28;20172;-80
2022/11/17 03:31:52;;;;;;;3.57;2.03;;;;;;;;;;4993336;28;20230;-80
2022/11/17 03:34:20;;;;;;;2.53;1.60;;;;;;;;;;4994603;28;20573;-80
2022/11/17 03:36:48;;;;;;;2.97;1.57;;;;;;;;;;4992854;28;20200;-80
2022/11/17 03:39:31;;;;;;;2.80;1.97;;;;;;;;;;4994104;28;20650;-80
2022/11/17 03:41:59;;;;;;;4.30;1.60;;;;;;;;;;4991495;28;20669;-80
2022/11/17 03:44:25;;;;;;;2.73;1.70;;;;;;;;;;4993158;28;20183;-80
2022/11/17 03:46:53;;;;;;;3.10;1.90;;;;;;;;;;4993822;28;20715;-79
2022/11/17 03:49:22;;;;;;;8.73;1.60;;;;;;;;;;4975421;28;20219;-80
2022/11/17 03:51:47;;;;;;;6.30;1.77;;;;;;;;;;4993068;28;20184;-79
2022/11/17 03:54:13;;;;;;;4.43;1.57;;;;;;;;;;4984896;28;20650;-79
2022/11/17 03:56:41;;;;;;;1.93;1.47;;;;;;;;;;4975847;28;20334;-79
2022/11/17 03:59:11;;;;;;;2.00;1.60;;;;;;;;;;4991254;28;20191;-79
2022/11/17 04:01:37;;;;;;;2.60;1.60;;;;;;;;;;4992116;28;20194;-79
2022/11/17 04:04:02;;;;;;;5.10;1.53;;;;;;;;;;4993342;28;20191;-77
2022/11/17 04:06:27;;;;;;;3.23;1.40;;;;;;;;;;4993522;28;20195;-80
2022/11/17 04:08:52;;;;;;;4.10;1.93;;;;;;;;;;4993784;28;20669;-80
2022/11/17 04:16:45;;;;;;;2.63;1.40;;;;;;;;;;4993724;28;20219;-81
2022/11/17 04:19:10;;;;;;;1.93;1.33;;;;;;;;;;4994209;28;20176;-81
2022/11/17 04:21:36;;;;;;;2.20;1.20;;;;;;;;;;4993594;28;20179;-82
2022/11/17 04:24:01;;;;;;;1.93;1.27;;;;;;;;;;4993479;28;20567;-80
2022/11/17 04:29:11;;;;;;;1.83;0.73;;;;;;;;;;4989953;28;20625;-80
2022/11/17 04:31:36;;;;;;;1.13;0.70;;;;;;;;;;4993196;28;20180;-82
2022/11/17 04:34:02;;;;;;;0.73;0.70;;;;;;;;;;4989822;28;20604;-82
2022/11/17 04:36:31;;;;;;;2.57;0.90;;;;;;;;;;4995635;28;20307;-82
2022/11/17 04:38:57;;;;;;;3.00;0.90;;;;;;;;;;4989208;28;20184;-82
2022/11/17 04:44:08;;;;;;;2.10;0.83;;;;;;;;;;4989500;28;20797;-81
2022/11/17 04:46:33;;;;;;;2.33;0.90;;;;;;;;;;4992586;28;20239;-82
2022/11/17 04:48:59;;;;;;;1.57;0.93;;;;;;;;;;4989043;28;20274;-82
2022/11/17 04:51:24;;;;;;;1.43;0.80;;;;;;;;;;4991220;28;20218;-82
2022/11/17 04:53:50;;;;;;;1.63;0.80;;;;;;;;;;4977133;28;20207;-82
2022/11/17 04:56:15;;;;;;;1.50;0.60;;;;;;;;;;4973883;28;20203;-82
2022/11/17 04:58:40;;;;;;;1.30;0.63;;;;;;;;;;4978733;28;20179;-83
2022/11/17 05:01:12;;;;;;;4.27;0.83;;;;;;;;;;4992442;28;20183;-83
2022/11/17 05:04:00;;;;;;;2.67;1.80;;;;;;;;;;4996798;28;20586;-82
2022/11/17 05:06:26;;;;;;;3.40;1.07;;;;;;;;;;4969133;28;20239;-82
2022/11/17 05:08:55;;;;;;;2.80;1.00;;;;;;;;;;4994312;28;20183;-82
2022/11/17 05:14:09;;;;;;;0.70;0.70;;;;;;;;;;4995963;28;20231;-83
2022/11/17 05:19:19;;;;;;;2.07;1.00;;;;;;;;;;4997746;28;20187;-83
2022/11/17 05:21:44;;;;;;;2.60;0.80;;;;;;;;;;4999137;28;20172;-82
2022/11/17 05:24:09;;;;;;;3.47;1.03;;;;;;;;;;4997359;28;20191;-83
2022/11/17 05:26:35;;;;;;;1.53;0.80;;;;;;;;;;4982312;28;20207;-84
2022/11/17 05:29:02;;;;;;;2.27;0.90;;;;;;;;;;4999968;28;20688;-83
2022/11/17 05:31:27;;;;;;;1.20;0.90;;;;;;;;;;4997626;28;20211;-83
2022/11/17 05:33:53;;;;;;;0.80;0.70;;;;;;;;;;4995569;28;20759;-83
2022/11/17 05:36:19;;;;;;;1.10;0.73;;;;;;;;;;4997882;28;20203;-83
2022/11/17 05:38:45;;;;;;;1.00;0.80;;;;;;;;;;4997523;28;20464;-81
2022/11/17 05:41:10;;;;;;;1.73;1.00;;;;;;;;;;4978978;28;20192;-83
2022/11/17 05:43:35;;;;;;;0.70;0.70;;;;;;;;;;4995525;28;20229;-83
2022/11/17 05:46:01;;;;;;;1.73;1.10;;;;;;;;;;4996329;28;20594;-84
2022/11/17 05:48:26;;;;;;;1.70;0.97;;;;;;;;;;4984870;28;20189;-82
2022/11/17 05:50:52;;;;;;;1.57;0.87;;;;;;;;;;5001909;28;20186;-84
2022/11/17 05:53:17;;;;;;;3.70;2.50;;;;;;;;;;4995752;28;20242;-84
2022/11/17 05:55:42;;;;;;;3.47;0.90;;;;;;;;;;4977499;28;20624;-83
2022/11/17 05:58:11;;;;;;;3.43;1.10;;;;;;;;;;4997850;28;20191;-83
2022/11/17 06:00:37;;;;;;;2.07;0.80;;;;;;;;;;4997795;28;20183;-83
2022/11/17 06:03:06;;;;;;;3.13;1.20;;;;;;;;;;4996712;28;20210;-83
2022/11/17 06:05:32;;;;;;;3.03;1.35;;;;;;;;;;4997375;28;20273;-84
2022/11/17 06:07:58;;;;;;;3.17;0.90;;;;;;;;;;4997332;28;20183;-83
2022/11/17 06:10:23;;;;;;;3.73;1.23;;;;;;;;;;4997119;28;20180;-83
2022/11/17 06:12:48;;;;;;;3.47;1.00;;;;;;;;;;4997599;28;20207;-82
2022/11/17 06:15:13;;;;;;;4.27;0.97;;;;;;;;;;4999296;28;20203;-82
2022/11/17 06:17:45;;;;;;;4.10;1.43;;;;;;;;;;4982857;28;20238;-83
2022/11/17 06:20:20;;;;;;;2.20;0.97;;;;;;;;;;4982758;28;20188;-82
2022/11/17 06:22:45;;;;;;;4.90;1.87;;;;;;;;;;4998370;28;20245;-82
2022/11/17 06:25:11;;;;;;;3.17;1.40;;;;;;;;;;4984051;28;20199;-82
2022/11/17 06:27:37;;;;;;;4.40;1.47;;;;;;;;;;5001498;28;20254;-83
2022/11/17 06:30:03;;;;;;;6.40;2.40;;;;;;;;;;4985659;28;20179;-83
2022/11/17 06:32:29;;;;;;;4.30;1.10;;;;;;;;;;5000333;28;20219;-83
2022/11/17 06:34:55;;;;;;;7.83;1.17;;;;;;;;;;4984193;28;20179;-83
2022/11/17 06:37:20;;;;;;;3.30;1.20;;;;;;;;;;4984376;28;20176;-82
2022/11/17 06:39:45;;;;;;;6.13;1.63;;;;;;;;;;4983584;28;20215;-83
2022/11/17 06:42:10;;;;;;;3.70;1.67;;;;;;;;;;4998729;28;20180;-83
2022/11/17 06:44:35;;;;;;;2.30;1.30;;;;;;;;;;5001014;28;20815;-83
2022/11/17 06:47:01;;;;;;;3.40;1.20;;;;;;;;;;5000901;28;20206;-84
2022/11/17 06:49:26;;;;;;;3.60;1.50;;;;;;;;;;4982122;28;20180;-82
2022/11/17 06:51:51;;;;;;;5.90;1.40;;;;;;;;;;4977196;28;20233;-82
2022/11/17 06:54:17;;;;;;;3.50;1.43;;;;;;;;;;5000624;28;20203;-82
2022/11/17 06:56:42;;;;;;;5.33;1.83;;;;;;;;;;4984531;28;20203;-82
2022/11/17 06:59:08;;;;;;;3.53;1.60;;;;;;;;;;5004346;28;20198;-82
2022/11/17 07:01:33;;;;;;;4.47;1.30;;;;;;;;;;4995995;28;20180;-83
2022/11/17 07:03:58;;;;;;;4.73;1.60;;;;;;;;;;4983317;28;20603;-83
2022/11/17 07:06:23;;;;;;;4.17;1.60;;;;;;;;;;4998361;28;20199;-82
2022/11/17 07:08:49;;;;;;;8.93;1.60;;;;;;;;;;4982777;28;20184;-82
2022/11/17 07:11:18;;;;;;;7.13;2.10;;;;;;;;;;4999191;28;20176;-82
2022/11/17 07:13:43;;;;;;;4.93;2.00;;;;;;;;;;4993405;28;20210;-82
2022/11/17 07:16:08;;;;;;;2.87;1.30;;;;;;;;;;4998288;28;20195;-82
2022/11/17 07:18:34;;;;;;;2.77;1.20;;;;;;;;;;4980639;28;20183;-81
2022/11/17 07:21:01;;;;;;;4.03;1.20;;;;;;;;;;4978629;28;20190;-82
2022/11/17 07:23:27;;;;;;;1.10;0.70;;;;;;;;;;4998645;28;20190;-81
2022/11/17 07:25:52;;;;;;;3.23;1.00;;;;;;;;;;4998898;28;20211;-82
2022/11/17 07:28:17;;;;;;;2.23;0.90;;;;;;;;;;4983364;28;20565;-82
2022/11/17 07:30:43;;;;;;;5.27;1.10;;;;;;;;;;4982764;28;20625;-82
2022/11/17 07:33:08;;;;;;;3.23;1.27;;;;;;;;;;4984256;28;20571;-82
2022/11/17 07:35:34;;;;;;;3.90;1.00;;;;;;;;;;4982879;28;20200;-82
2022/11/17 07:38:00;;;;;;;1.87;1.10;;;;;;;;;;4994418;28;20176;-82
2022/11/17 07:40:25;;;;;;;7.93;1.80;;;;;;;;;;4980237;28;20576;-82
2022/11/17 07:42:50;;;;;;;4.20;1.10;;;;;;;;;;4998069;28;20179;-81
2022/11/17 07:45:16;;;;;;;1.23;1.10;;;;;;;;;;4980867;28;20219;-81
2022/11/17 07:47:41;;;;;;;2.93;1.10;;;;;;;;;;5000714;28;20190;-81
2022/11/17 07:50:06;;;;;;;1.93;0.80;;;;;;;;;;4999806;28;20183;-81
2022/11/17 07:52:31;;;;;;;0.93;0.83;;;;;;;;;;4999719;28;20204;-81
2022/11/17 07:54:57;;;;;;;6.57;0.90;;;;;;;;;;5001477;28;20183;-82
2022/11/17 07:57:23;;;;;;;1.80;0.90;;;;;;;;;;5001429;28;20263;-82
2022/11/17 07:59:49;;;;;;;2.13;1.10;;;;;;;;;;5001235;28;20661;-81
2022/11/17 08:02:14;;;;;;;5.63;1.20;;;;;;;;;;4990520;28;20269;-81
2022/11/17 08:04:39;;;;;;;3.37;1.30;;;;;;;;;;4996971;28;20284;-81
2022/11/17 08:07:04;;;;;;;3.97;1.23;;;;;;;;;;5000174;28;20210;-81
2022/11/17 08:09:29;;;;;;;3.30;1.37;;;;;;;;;;4997072;28;20650;-81
2022/11/17 08:11:56;;;;;;;6.40;2.50;;;;;;;;;;4996454;28;20183;-80
2022/11/17 08:14:21;;;;;;;3.33;1.20;;;;;;;;;;4978694;28;20214;-81
2022/11/17 08:16:46;;;;;;;3.63;1.03;;;;;;;;;;4979415;28;20251;-81
2022/11/17 08:19:13;;;;;;;3.23;1.10;;;;;;;;;;4980014;28;20183;-80
2022/11/17 08:21:39;;;;;;;1.80;1.00;;;;;;;;;;4994616;28;20186;-80
2022/11/17 08:24:05;;;;;;;4.27;1.83;;;;;;;;;;4995828;28;20298;-80
2022/11/17 08:26:30;;;;;;;4.50;1.33;;;;;;;;;;4979638;28;20274;-81
2022/11/17 08:28:57;;;;;;;2.53;1.10;;;;;;;;;;4997287;28;20266;-81
2022/11/17 08:31:22;;;;;;;3.63;1.30;;;;;;;;;;4979684;28;20171;-80
2022/11/17 08:33:47;;;;;;;3.70;1.13;;;;;;;;;;4995731;28;20627;-80
2022/11/17 08:36:12;;;;;;;3.47;1.40;;;;;;;;;;5000735;28;20223;-80
2022/11/17 08:38:37;;;;;;;3.43;2.03;;;;;;;;;;4980864;28;20187;-81
2022/11/17 08:41:06;;;;;;;2.73;1.30;;;;;;;;;;4997961;28;20207;-81
2022/11/17 08:43:32;;;;;;;3.07;1.27;;;;;;;;;;5000043;28;20181;-82
2022/11/17 08:45:57;;;;;;;1.83;1.20;;;;;;;;;;4981582;28;20702;-81
2022/11/17 08:48:22;;;;;;;3.03;1.43;;;;;;;;;;4972836;28;20192;-80
2022/11/17 08:50:47;;;;;;;2.23;1.10;;;;;;;;;;4981735;28;20203;-80
2022/11/17 08:53:14;;;;;;;3.80;1.53;;;;;;;;;;4979301;28;20207;-81
2022/11/17 08:55:39;;;;;;;2.47;1.00;;;;;;;;;;4997932;28;20203;-80
2022/11/17 08:58:04;;;;;;;1.57;1.20;;;;;;;;;;5000472;28;20183;-81
2022/11/17 09:00:29;;;;;;;3.90;1.63;;;;;;;;;;4982456;28;20176;-80
2022/11/17 09:02:54;;;;;;;1.57;0.80;;;;;;;;;;4981392;28;20179;-80
2022/11/17 09:05:20;;;;;;;4.33;1.17;;;;;;;;;;4997742;28;20207;-80
2022/11/17 09:07:45;;;;;;;2.80;1.10;;;;;;;;;;4999159;28;20250;-80
2022/11/17 09:10:10;;;;;;;1.43;1.07;;;;;;;;;;4981970;28;20194;-80
2022/11/17 09:12:36;;;;;;;2.17;1.00;;;;;;;;;;4981242;28;20207;-80
2022/11/17 09:15:03;;;;;;;1.50;1.00;;;;;;;;;;4983213;28;20231;-81
2022/11/17 09:17:29;;;;;;;3.70;1.50;;;;;;;;;;4999812;28;20241;-80
2022/11/17 09:19:55;;;;;;;3.07;1.20;;;;;;;;;;5000759;28;20172;-80
2022/11/17 09:22:20;;;;;;;3.03;1.00;;;;;;;;;;4994530;28;20624;-80
2022/11/17 09:24:45;;;;;;;1.30;0.80;;;;;;;;;;4980437;28;20188;-80
2022/11/17 09:27:10;;;;;;;4.27;1.00;;;;;;;;;;5000548;22;20651;-72
2022/11/17 09:29:35;;;;;;;2.47;0.93;;;;;;;;;;4991095;28;20191;-71
2022/11/17 09:32:01;;;;;;;3.13;1.10;;;;;;;;;;4979971;28;20179;-71
2022/11/17 09:34:28;;;;;;;2.03;1.20;;;;;;;;;;4991057;28;20196;-71
2022/11/17 09:36:53;;;;;;;3.87;1.73;;;;;;;;;;4990455;28;20202;-71
2022/11/17 09:39:18;;;;;;;3.63;1.30;;;;;;;;;;4999455;28;20171;-71
2022/11/17 09:41:53;;;;;;;2.57;1.43;;;;;;;;;;4999160;28;20199;-71
2022/11/17 09:44:25;;;;;;;3.33;1.00;;;;;;;;;;4996242;28;20660;-72
2022/11/17 09:46:56;;;;;;;1.77;1.00;;;;;;;;;;4978582;28;20268;-72
2022/11/17 09:49:40;;;;;;;3.83;1.10;;;;;;;;;;4988670;28;20186;-72
2022/11/17 09:52:12;;;;;;;2.50;0.80;;;;;;;;;;4991769;28;20180;-72
2022/11/17 09:54:43;;;;;;;1.20;0.83;;;;;;;;;;4997290;28;20304;-72
2022/11/17 09:57:32;;;;;;;1.70;0.73;;;;;;;;;;4975519;28;20227;-72
2022/11/17 10:00:03;;;;;;;2.43;0.97;;;;;;;;;;4989707;28;20569;-72
2022/11/17 10:02:29;;;;;;;2.27;1.20;;;;;;;;;;4996715;28;20259;-72
2022/11/17 10:04:54;;;;;;;2.70;1.20;;;;;;;;;;4990718;28;20271;-72
2022/11/17 10:07:20;;;;;;;4.43;1.80;;;;;;;;;;4991570;28;20271;-73
2022/11/17 10:09:48;;;;;;;3.80;1.30;;;;;;;;;;4998840;28;20225;-73
2022/11/17 10:12:15;;;;;;;4.17;1.00;;;;;;;;;;4995107;28;20254;-72
2022/11/17 10:14:40;;;;;;;2.47;1.43;;;;;;;;;;4997244;28;20210;-72
2022/11/17 10:17:05;;;;;;;3.07;1.43;;;;;;;;;;4991625;28;20196;-73
2022/11/17 10:19:31;;;;;;;6.73;1.30;;;;;;;;;;4995085;28;20180;-72
2022/11/17 10:22:10;;;;;;;4.43;1.03;;;;;;;;;;5002115;28;20214;-73
2022/11/17 10:24:43;;;;;;;3.37;0.90;;;;;;;;;;4997524;28;20665;-73
2022/11/17 10:27:17;;;;;;;2.33;1.00;;;;;;;;;;4986673;28;20214;-73
2022/11/17 10:30:14;;;;;;;2.63;1.20;;;;;;;;;;4988444;28;20175;-72
2022/11/17 10:32:46;;;;;;;1.50;1.00;;;;;;;;;;4952636;28;20217;-73
2022/11/17 10:35:13;;;;;;;2.93;1.10;;;;;;;;;;4994810;28;20189;-73
2022/11/17 10:37:41;;;;;;;2.53;1.23;;;;;;;;;;4996907;28;20185;-73
2022/11/17 10:40:18;;;;;;;5.70;2.53;;;;;;;;;;4983357;28;20212;-72
2022/11/17 10:42:51;;;;;;;5.70;1.10;;;;;;;;;;4975931;28;20616;-73
2022/11/17 10:45:16;;;;;;;7.17;1.30;;;;;;;;;;4989139;28;20187;-73
2022/11/17 10:47:42;;;;;;;4.63;1.20;;;;;;;;;;4988087;28;20672;-73
2022/11/17 10:50:18;;;;;;;4.50;0.90;;;;;;;;;;4986742;28;20219;-73
2022/11/17 10:52:43;;;;;;;3.90;2.10;;;;;;;;;;4991867;28;20637;-73
2022/11/17 10:55:25;;;;;;;3.10;1.10;;;;;;;;;;4996817;28;20271;-73
2022/11/17 10:57:53;;;;;;;4.67;1.10;;;;;;;;;;4982006;28;20215;-73
2022/11/17 11:00:22;;;;;;;1.37;1.00;;;;;;;;;;4992057;28;20187;-74
2022/11/17 11:02:47;;;;;;;2.70;1.27;;;;;;;;;;4985248;28;20555;-73
2022/11/17 11:05:14;;;;;;;4.03;1.00;;;;;;;;;;4993962;28;20183;-73
2022/11/17 11:07:40;;;;;;;5.90;1.43;;;;;;;;;;4998412;28;20175;-73
2022/11/17 11:10:12;;;;;;;3.70;1.70;;;;;;;;;;5003897;28;20719;-73
2022/11/17 11:12:43;;;;;;;5.37;1.77;;;;;;;;;;4976845;28;20569;-73
2022/11/17 11:15:15;;;;;;;3.90;1.30;;;;;;;;;;4997549;28;20183;-73
2022/11/17 11:17:40;;;;;;;3.27;1.40;;;;;;;;;;4997814;28;20175;-73
2022/11/17 11:20:11;;;;;;;2.67;1.13;;;;;;;;;;4988629;28;20241;-73
2022/11/17 11:22:52;;;;;;;3.50;1.37;;;;;;;;;;4981979;28;20187;-72
2022/11/17 11:25:35;;;;;;;1.30;1.10;;;;;;;;;;4996183;28;20233;-73
2022/11/17 11:28:25;;;;;;;5.83;1.60;;;;;;;;;;4995486;28;20234;-73
2022/11/17 11:30:58;;;;;;;7.70;1.23;;;;;;;;;;4993181;28;20178;-73
2022/11/17 11:33:33;;;;;;;5.57;1.30;;;;;;;;;;4980844;28;20700;-73
2022/11/17 11:36:05;;;;;;;3.07;1.07;;;;;;;;;;5003562;28;20275;-73
2022/11/17 11:38:49;;;;;;;3.57;1.00;;;;;;;;;;5006130;28;20175;-73
2022/11/17 11:41:14;;;;;;;1.30;1.00;;;;;;;;;;4993908;28;20174;-73
2022/11/17 11:43:51;;;;;;;3.23;1.87;;;;;;;;;;5002319;28;20176;-73
2022/11/17 11:46:24;;;;;;;3.83;1.77;;;;;;;;;;5004260;28;20289;-73
2022/11/17 11:48:51;;;;;;;2.77;1.20;;;;;;;;;;4987128;28;20650;-73
2022/11/17 11:51:33;;;;;;;3.93;1.00;;;;;;;;;;5005476;28;20187;-73
2022/11/17 11:54:25;;;;;;;4.87;1.10;;;;;;;;;;4995183;28;20214;-73
2022/11/17 11:56:50;;;;;;;3.30;1.00;;;;;;;;;;4987534;28;20215;-73
2022/11/17 11:59:20;;;;;;;1.90;1.03;;;;;;;;;;4998988;28;20627;-73
2022/11/17 12:01:46;;;;;;;1.60;0.97;;;;;;;;;;4998871;28;20183;-73
2022/11/17 12:04:29;;;;;;;3.50;1.43;;;;;;;;;;5001612;28;20346;-73
2022/11/17 12:06:58;;;;;;;6.07;2.13;;;;;;;;;;4983440;28;20202;-73
2022/11/17 12:09:26;;;;;;;6.37;1.20;;;;;;;;;;4992165;28;20241;-73
2022/11/17 12:12:01;;;;;;;2.60;1.57;;;;;;;;;;4989867;28;20201;-72
2022/11/17 12:14:30;;;;;;;3.67;1.20;;;;;;;;;;4999241;28;20599;-72
2022/11/17 12:17:00;;;;;;;2.40;1.10;;;;;;;;;;5000576;28;20218;-73
2022/11/17 12:19:44;;;;;;;1.53;1.07;;;;;;;;;;4999402;28;20195;-73
2022/11/17 12:22:13;;;;;;;5.77;1.60;;;;;;;;;;4991698;28;20187;-73
2022/11/17 12:24:40;;;;;;;7.43;1.10;;;;;;;;;;5001854;28;20179;-75
2022/11/17 12:27:24;;;;;;;2.40;1.00;;;;;;;;;;4989784;28;20673;-75
2022/11/17 12:29:49;;;;;;;3.83;1.30;;;;;;;;;;4985351;28;20187;-74
2022/11/17 12:32:33;;;;;;;4.23;1.37;;;;;;;;;;5002147;28;20237;-74
2022/11/17 12:35:17;;;;;;;3.63;1.63;;;;;;;;;;4995868;28;20202;-74
2022/11/17 12:37:42;;;;;;;2.60;1.00;;;;;;;;;;4978177;28;20188;-74
2022/11/17 12:40:27;;;;;;;2.03;0.87;;;;;;;;;;4988302;28;20210;-74
2022/11/17 12:43:11;;;;;;;1.70;0.90;;;;;;;;;;4995270;28;20657;-74
2022/11/17 12:45:52;;;;;;;4.37;1.33;;;;;;;;;;4972968;28;20294;-74
2022/11/17 12:48:21;;;;;;;3.33;1.17;;;;;;;;;;4984452;28;20585;-74
2022/11/17 12:51:05;;;;;;;3.70;1.20;;;;;;;;;;4976269;28;20543;-74
2022/11/17 12:53:33;;;;;;;5.13;1.30;;;;;;;;;;4986362;28;20206;-74
2022/11/17 12:56:16;;;;;;;2.33;1.33;;;;;;;;;;4972432;28;20665;-74
2022/11/17 12:58:45;;;;;;;2.03;1.20;;;;;;;;;;4996957;28;20611;-74
2022/11/17 13:01:13;;;;;;;2.60;1.00;;;;;;;;;;5001117;28;20210;-74
2022/11/17 13:03:46;;;;;;;5.00;0.83;;;;;;;;;;4983617;28;20184;-74
2022/11/17 13:06:14;;;;;;;4.00;1.57;;;;;;;;;;4989517;28;20207;-74
2022/11/17 13:08:39;;;;;;;1.90;1.60;;;;;;;;;;4974804;28;20258;-74
2022/11/17 13:11:10;;;;;;;3.13;1.10;;;;;;;;;;4996571;28;20266;-74
2022/11/17 13:13:35;;;;;;;2.20;0.90;;;;;;;;;;4997797;28;20207;-74
2022/11/17 13:16:01;;;;;;;5.23;2.77;;;;;;;;;;4995060;28;20582;-74
2022/11/17 13:18:39;;;;;;;2.67;1.20;;;;;;;;;;4985120;28;20192;-74
2022/11/17 13:21:15;;;;;;;4.80;1.03;;;;;;;;;;4973045;28;20207;-75
2022/11/17 13:23:43;;;;;;;10.23;1.47;;;;;;;;;;4997887;28;20333;-74
2022/11/17 13:26:09;;;;;;;5.50;1.63;;;;;;;;;;4995553;28;20310;-74
2022/11/17 13:28:34;;;;;;;2.63;1.10;;;;;;;;;;4994382;28;20233;-74
2022/11/17 13:30:59;;;;;;;4.77;1.43;;;;;;;;;;5001008;28;20300;-74
2022/11/17 13:33:25;;;;;;;3.30;1.10;;;;;;;;;;4991158;28;20253;-74
2022/11/17 13:36:04;;;;;;;4.60;1.20;;;;;;;;;;4995979;28;20574;-74
2022/11/17 13:38:29;;;;;;;2.00;0.97;;;;;;;;;;5004191;28;20636;-74
2022/11/17 13:40:55;;;;;;;3.20;1.40;;;;;;;;;;4981376;28;20182;-74
2022/11/17 13:43:22;;;;;;;4.43;0.77;;;;;;;;;;5004584;28;20217;-74
2022/11/17 13:45:48;;;;;;;4.57;1.70;;;;;;;;;;4989287;28;20247;-75
2022/11/17 13:48:33;;;;;;;1.30;1.10;;;;;;;;;;4989158;28;20653;-74
2022/11/17 13:51:17;;;;;;;5.70;1.93;;;;;;;;;;4982914;28;20270;-74
2022/11/17 13:53:43;;;;;;;3.57;0.83;;;;;;;;;;4993063;28;20226;-74
2022/11/17 13:56:27;;;;;;;3.63;1.30;;;;;;;;;;4998647;28;20202;-74
2022/11/17 13:58:52;;;;;;;3.13;1.03;;;;;;;;;;5000837;28;20179;-73
2022/11/17 14:01:28;;;;;;;2.67;1.40;;;;;;;;;;4990840;28;20179;-74
2022/11/17 14:04:10;;;;;;;2.03;1.10;;;;;;;;;;4977889;28;20183;-74
2022/11/17 14:06:56;;;;;;;2.70;1.07;;;;;;;;;;4994832;28;20199;-74
2022/11/17 14:09:22;;;;;;;2.37;1.00;;;;;;;;;;5002136;28;20281;-73
2022/11/17 14:11:47;;;;;;;2.43;1.57;;;;;;;;;;4983057;28;20278;-73
2022/11/17 14:14:13;;;;;;;2.47;1.17;;;;;;;;;;5001791;28;20223;-74
2022/11/17 14:16:39;;;;;;;1.40;0.90;;;;;;;;;;4995882;28;20732;-73
2022/11/17 14:19:23;;;;;;;6.00;1.20;;;;;;;;;;4994584;28;20257;-74
2022/11/17 14:21:58;;;;;;;1.83;0.80;;;;;;;;;;4991733;28;20240;-74
2022/11/17 14:24:23;;;;;;;1.73;0.90;;;;;;;;;;5000577;28;20180;-73
2022/11/17 14:26:48;;;;;;;5.23;0.87;;;;;;;;;;5005665;28;20285;-75
2022/11/17 14:29:13;;;;;;;2.50;1.20;;;;;;;;;;4998639;28;20184;-73
2022/11/17 14:31:39;;;;;;;2.03;0.73;;;;;;;;;;4991004;28;20669;-74
2022/11/17 14:34:04;;;;;;;2.90;1.00;;;;;;;;;;4995833;28;20210;-73
2022/11/17 14:36:30;;;;;;;2.77;0.87;;;;;;;;;;5003371;28;20203;-73
2022/11/17 14:38:56;;;;;;;7.20;1.30;;;;;;;;;;4990847;28;20542;-73
2022/11/17 14:41:21;;;;;;;2.63;0.80;;;;;;;;;;4993864;28;20179;-73
2022/11/17 14:43:46;;;;;;;1.50;0.80;;;;;;;;;;5007030;28;20180;-73
2022/11/17 14:46:19;;;;;;;2.27;0.93;;;;;;;;;;4977616;28;20203;-73
2022/11/17 14:48:44;;;;;;;2.37;0.80;;;;;;;;;;4990431;28;20176;-73
2022/11/17 14:51:10;;;;;;;1.53;0.93;;;;;;;;;;4994877;28;20186;-73
2022/11/17 14:53:35;;;;;;;2.33;0.77;;;;;;;;;;5004743;28;20539;-73
2022/11/17 14:56:07;;;;;;;2.35;1.00;;;;;;;;;;5004095;28;20187;-74
2022/11/17 14:58:32;;;;;;;3.00;0.60;;;;;;;;;;4977444;28;20180;-73
2022/11/17 15:00:57;;;;;;;4.33;0.80;;;;;;;;;;4997260;28;20182;-73
2022/11/17 15:03:23;;;;;;;1.77;0.83;;;;;;;;;;4981430;28;20249;-73
2022/11/17 15:05:48;;;;;;;2.40;0.63;;;;;;;;;;4971598;28;20608;-73
2022/11/17 15:08:13;;;;;;;1.83;0.53;;;;;;;;;;4999852;28;20340;-72
2022/11/17 15:10:44;;;;;;;1.90;0.77;;;;;;;;;;4996835;28;20516;-73
2022/11/17 15:13:10;;;;;;;2.77;0.93;;;;;;;;;;4993036;28;20234;-73
2022/11/17 15:15:35;;;;;;;2.57;0.87;;;;;;;;;;4994907;28;20231;-73